CheckWX is a tool to help pilots better visualize weather data.  It is not intended as a substitute for an official pre-flight weather briefing.

14:49:16 UTC

KLGU TAF
Logan-Cache Airport
Logan, Utah, USA
KLGU 231120Z 2312/2412 VRB04KT P6SM BKN050 BKN120 FM240400 VRB04KT P6SM VCSH SCT020 BKN040

Mar-23@
12:00 UTC

Mar-23 @ 12:00 UTC

Mar-24@
04:00 UTC

Mar-24 @ 04:00 UTC

KLGU 231120Z 2312/2412 VRB04KT P6SM BKN050 BKN120
Wind
  • Variable at 4 KTS
Cloud Levels
  • Broken at 5,000' AGL
  • Broken at 12,000' AGL

Mar-24@
04:00 UTC

Mar-24 @ 04:00 UTC

Mar-24@
12:00 UTC

Mar-24 @ 12:00 UTC

FM240400 VRB04KT P6SM VCSH SCT020 BKN040

From

From Standard forecast or significant change

Wind
  • Variable at 4 KTS
Cloud Levels
  • Scattered at 2,000' AGL
  • Broken at 4,000' AGL